Terminal Aerodrome Forecast
Issued by NWS Wichita, KS

Home | Current Version | Previous Version | Text Only | Print | Product List | Glossary Off
Versions: 1 2 3 4 5 6 7 8 9 10 11 12 13 14 15 16 17 18 19 20 21

000
FTUS43 KICT 010520
TAFICT
TAF
KICT 010520Z 0106/0206 18010KT P6SM SCT150 BKN250
     FM010900 23014KT P6SM BKN150
     FM020000 27012KT P6SM BKN120
     FM020300 35012KT P6SM BKN120=

USA.gov is the U.S. government's official web portal to all federal, state and local government web resources and services.